createdAt,value
2018-06-02T00:00:08.438Z,0.00
2018-06-02T00:01:08.422Z,0.00
2018-06-02T00:02:08.402Z,0.00
2018-06-02T00:03:08.389Z,0.00
2018-06-02T00:04:08.380Z,0.00
2018-06-02T00:05:08.400Z,0.00
2018-06-02T00:06:08.358Z,0.00
2018-06-02T00:07:08.340Z,0.00
2018-06-02T00:08:08.340Z,0.00
2018-06-02T00:09:08.328Z,0.00
2018-06-02T00:10:08.310Z,0.00
2018-06-02T00:12:08.292Z,0.00
2018-06-02T00:13:08.279Z,0.00
2018-06-02T00:14:08.266Z,0.00
2018-06-02T00:15:08.253Z,0.00
2018-06-02T00:16:08.242Z,0.00
2018-06-02T00:17:08.228Z,0.00
2018-06-02T00:18:08.223Z,0.00
2018-06-02T00:19:08.212Z,0.00
2018-06-02T00:20:08.195Z,0.00
2018-06-02T00:21:08.193Z,0.00
2018-06-02T00:22:08.167Z,0.00
2018-06-02T00:23:08.161Z,0.00
2018-06-02T00:24:08.158Z,0.00
2018-06-02T00:25:08.136Z,0.00
2018-06-02T00:26:08.128Z,0.00
2018-06-02T00:27:08.116Z,0.00
2018-06-02T00:28:08.101Z,0.00
2018-06-02T00:29:08.087Z,0.00
2018-06-02T00:30:08.078Z,0.00
2018-06-02T00:32:08.056Z,0.00
2018-06-02T00:33:08.054Z,0.00
2018-06-02T00:34:08.039Z,0.00
2018-06-02T00:35:08.017Z,0.00
2018-06-02T00:36:08.008Z,0.00
2018-06-02T00:37:08.010Z,0.00
2018-06-02T00:38:07.992Z,0.00
2018-06-02T00:39:07.988Z,0.00
2018-06-02T00:40:07.960Z,0.00
2018-06-02T00:41:07.946Z,0.00
2018-06-02T00:42:07.947Z,0.00
2018-06-02T00:43:07.927Z,0.00
2018-06-02T00:44:07.922Z,0.00
2018-06-02T00:45:07.919Z,0.00
2018-06-02T00:47:07.886Z,0.00
2018-06-02T00:48:07.867Z,0.00
2018-06-02T00:49:07.857Z,0.00
2018-06-02T00:50:07.849Z,0.00
2018-06-02T00:51:07.840Z,0.00
2018-06-02T00:52:07.822Z,0.00
2018-06-02T00:53:07.822Z,0.00
2018-06-02T00:54:07.803Z,0.00
2018-06-02T00:55:07.791Z,0.00
2018-06-02T00:56:07.778Z,0.00
2018-06-02T00:57:07.865Z,0.00
2018-06-02T00:58:07.752Z,0.00
2018-06-02T00:59:07.748Z,0.00
2018-06-02T01:00:07.733Z,0.00
2018-06-02T01:01:07.715Z,0.00
2018-06-02T01:03:07.701Z,0.00
2018-06-02T01:04:07.689Z,0.00
2018-06-02T01:05:07.676Z,0.00
2018-06-02T01:06:07.663Z,0.00
2018-06-02T01:07:07.643Z,0.00
2018-06-02T01:09:07.628Z,0.00
2018-06-02T01:10:07.615Z,0.00
2018-06-02T01:11:07.603Z,0.00
2018-06-02T01:12:07.589Z,0.00
2018-06-02T01:13:07.577Z,0.00
2018-06-02T01:14:07.574Z,0.00
2018-06-02T01:15:07.557Z,0.00
2018-06-02T01:16:07.551Z,0.00
2018-06-02T01:17:07.533Z,0.00
2018-06-02T01:18:07.517Z,0.00
2018-06-02T01:19:07.507Z,0.00
2018-06-02T01:20:07.492Z,0.00
2018-06-02T01:21:07.484Z,0.00
2018-06-02T01:22:07.472Z,0.00
2018-06-02T01:23:07.462Z,0.00
2018-06-02T01:24:07.452Z,0.00
2018-06-02T01:25:07.439Z,0.00
2018-06-02T01:26:07.440Z,0.00
2018-06-02T01:27:07.409Z,0.00
2018-06-02T01:29:07.389Z,0.00
2018-06-02T01:30:07.374Z,0.00
2018-06-02T01:31:07.371Z,0.00
2018-06-02T01:32:07.353Z,0.00
2018-06-02T01:33:07.340Z,0.00
2018-06-02T01:36:07.304Z,0.00
2018-06-02T01:37:07.301Z,0.00
2018-06-02T01:38:07.294Z,0.00
2018-06-02T01:40:07.382Z,0.00
2018-06-02T01:41:07.240Z,0.00
2018-06-02T01:42:07.233Z,0.00
2018-06-02T01:43:07.218Z,0.00
2018-06-02T01:44:07.208Z,0.00
2018-06-02T01:46:07.269Z,0.00
2018-06-02T01:47:07.178Z,0.00
2018-06-02T01:48:07.174Z,0.00
2018-06-02T01:49:07.153Z,0.00
2018-06-02T01:50:07.189Z,0.00
2018-06-02T01:51:07.126Z,0.00
2018-06-02T01:52:07.113Z,0.00
2018-06-02T01:53:07.107Z,0.00
2018-06-02T01:55:07.082Z,0.00
2018-06-02T01:56:07.062Z,0.00
2018-06-02T01:57:07.057Z,0.00
2018-06-02T01:58:07.043Z,0.00
2018-06-02T01:59:07.027Z,0.00
2018-06-02T02:01:07.008Z,0.00
2018-06-02T02:02:06.995Z,0.00
2018-06-02T02:03:06.981Z,0.00
2018-06-02T02:04:06.969Z,0.00
2018-06-02T02:05:06.955Z,0.00
2018-06-02T02:06:06.944Z,0.00
2018-06-02T02:07:06.939Z,0.00
2018-06-02T02:08:06.917Z,0.00
2018-06-02T02:09:06.908Z,0.00
2018-06-02T02:10:06.899Z,0.00
2018-06-02T02:11:06.886Z,0.00
2018-06-02T02:12:06.868Z,0.00
2018-06-02T02:13:06.860Z,0.00
2018-06-02T02:14:06.847Z,0.00
2018-06-02T02:15:06.838Z,0.00
2018-06-02T02:16:06.822Z,0.00
2018-06-02T02:17:06.820Z,0.00
2018-06-02T02:18:06.809Z,0.00
2018-06-02T02:19:06.780Z,0.00
2018-06-02T02:20:06.782Z,0.00
2018-06-02T02:21:06.765Z,0.00
2018-06-02T02:22:06.749Z,0.00
2018-06-02T02:23:06.737Z,0.00
2018-06-02T02:24:06.724Z,0.00
2018-06-02T02:25:06.711Z,0.00
2018-06-02T02:26:06.704Z,0.00
2018-06-02T02:27:06.692Z,0.00
2018-06-02T02:28:06.683Z,0.00
2018-06-02T02:29:06.668Z,0.00
2018-06-02T02:30:06.659Z,0.00
2018-06-02T02:32:06.628Z,0.00
2018-06-02T02:33:06.629Z,0.00
2018-06-02T02:34:06.609Z,0.00
2018-06-02T02:35:06.598Z,0.00
2018-06-02T02:36:06.584Z,0.00
2018-06-02T02:37:06.570Z,0.00
2018-06-02T02:38:06.557Z,0.00
2018-06-02T02:39:06.545Z,0.00
2018-06-02T02:40:06.529Z,0.00
2018-06-02T02:41:06.523Z,0.00
2018-06-02T02:42:06.518Z,0.00
2018-06-02T02:43:06.497Z,0.00
2018-06-02T02:44:06.495Z,0.00
2018-06-02T02:45:06.473Z,0.00
2018-06-02T02:46:06.465Z,0.00
2018-06-02T02:47:06.456Z,0.00
2018-06-02T02:48:06.453Z,0.00
2018-06-02T02:49:06.432Z,0.00
2018-06-02T02:50:06.414Z,0.00
2018-06-02T02:51:06.403Z,0.00
2018-06-02T02:52:06.388Z,0.00
2018-06-02T02:53:06.373Z,0.00
2018-06-02T02:54:06.365Z,0.00
2018-06-02T02:55:06.353Z,4.00
2018-06-02T02:57:06.378Z,4.00
2018-06-02T02:58:06.318Z,4.00
2018-06-02T02:59:06.352Z,0.00
2018-06-02T03:00:06.291Z,0.00
2018-06-02T03:01:06.278Z,0.00
2018-06-02T03:04:06.243Z,4.00
2018-06-02T03:05:06.235Z,4.00
2018-06-02T03:06:06.218Z,4.00
2018-06-02T03:07:06.304Z,4.00
2018-06-02T03:08:06.195Z,4.00
2018-06-02T03:09:06.192Z,4.00
2018-06-02T03:10:06.163Z,8.00
2018-06-02T03:11:06.222Z,8.00
2018-06-02T03:12:06.141Z,4.00
2018-06-02T03:13:06.138Z,4.00
2018-06-02T03:14:06.121Z,8.00
2018-06-02T03:15:06.111Z,8.00
2018-06-02T03:16:06.096Z,8.00
2018-06-02T03:18:06.079Z,12.00
2018-06-02T03:19:06.057Z,12.00
2018-06-02T03:20:06.041Z,12.00
2018-06-02T03:21:06.036Z,12.00
2018-06-02T03:22:06.027Z,12.00
2018-06-02T03:23:06.013Z,16.00
2018-06-02T03:24:06.000Z,16.00
2018-06-02T03:25:05.981Z,20.00
2018-06-02T03:26:05.978Z,24.00
2018-06-02T03:28:05.950Z,24.00
2018-06-02T03:29:05.937Z,28.00
2018-06-02T03:30:05.930Z,28.00
2018-06-02T03:31:05.937Z,28.00
2018-06-02T03:32:05.902Z,28.00
2018-06-02T03:33:05.887Z,32.00
2018-06-02T03:34:05.880Z,32.00
2018-06-02T03:35:05.867Z,36.00
2018-06-02T03:36:05.849Z,36.00
2018-06-02T03:37:05.850Z,40.00
2018-06-02T03:38:05.824Z,36.00
2018-06-02T03:39:05.822Z,40.00
2018-06-02T03:40:05.806Z,40.00
2018-06-02T03:41:05.786Z,44.00
2018-06-02T03:42:05.777Z,52.00
2018-06-02T03:43:05.762Z,52.00
2018-06-02T03:44:05.757Z,60.00
2018-06-02T03:45:05.742Z,68.00
2018-06-02T03:46:05.729Z,68.00
2018-06-02T03:47:05.716Z,76.00
2018-06-02T03:48:05.718Z,84.00
2018-06-02T03:49:05.701Z,84.00
2018-06-02T03:50:05.685Z,88.00
2018-06-02T03:51:05.671Z,88.00
2018-06-02T03:52:05.659Z,96.00
2018-06-02T03:53:05.646Z,96.00
2018-06-02T03:54:05.642Z,92.00
2018-06-02T03:55:05.618Z,84.00
2018-06-02T03:56:05.676Z,84.00
2018-06-02T03:57:05.589Z,80.00
2018-06-02T03:59:05.574Z,88.00
2018-06-02T04:00:05.557Z,92.00
2018-06-02T04:01:05.548Z,92.00
2018-06-02T04:02:05.534Z,104.00
2018-06-02T04:03:05.519Z,112.00
2018-06-02T04:04:05.509Z,120.00
2018-06-02T04:05:05.496Z,124.00
2018-06-02T04:06:05.482Z,128.00
2018-06-02T04:07:05.477Z,128.00
2018-06-02T04:08:05.454Z,128.00
2018-06-02T04:10:05.430Z,120.00
2018-06-02T04:11:05.422Z,124.00
2018-06-02T04:12:05.409Z,124.00
2018-06-02T04:13:05.397Z,132.00
2018-06-02T04:14:05.391Z,140.00
2018-06-02T04:15:05.384Z,156.00
2018-06-02T04:16:05.358Z,164.00
2018-06-02T04:17:05.346Z,172.00
2018-06-02T04:18:05.340Z,172.00
2018-06-02T04:19:05.324Z,176.00
2018-06-02T04:20:05.317Z,180.00
2018-06-02T04:21:05.301Z,180.00
2018-06-02T04:22:05.289Z,176.00
2018-06-02T04:23:05.280Z,180.00
2018-06-02T04:24:05.267Z,176.00
2018-06-02T04:25:05.258Z,172.00
2018-06-02T04:26:05.241Z,176.00
2018-06-02T04:27:05.232Z,172.00
2018-06-02T04:28:05.215Z,168.00
2018-06-02T04:29:05.203Z,176.00
2018-06-02T04:30:05.189Z,180.00
2018-06-02T04:31:05.175Z,172.00
2018-06-02T04:32:05.172Z,168.00
2018-06-02T04:33:05.152Z,160.00
2018-06-02T04:34:05.146Z,160.00
2018-06-02T04:36:05.132Z,172.00
2018-06-02T04:39:05.091Z,176.00
2018-06-02T04:41:05.060Z,200.00
2018-06-02T04:42:05.044Z,228.00
2018-06-02T04:43:05.031Z,244.00
2018-06-02T04:44:05.070Z,252.00
2018-06-02T04:45:05.009Z,264.00
2018-06-02T04:46:04.992Z,264.00
2018-06-02T04:47:04.979Z,264.00
2018-06-02T04:48:04.969Z,268.00
2018-06-02T04:49:04.958Z,264.00
2018-06-02T04:50:04.953Z,276.00
2018-06-02T04:51:04.939Z,268.00
2018-06-02T04:52:04.916Z,264.00
2018-06-02T04:53:04.911Z,272.00
2018-06-02T04:54:04.900Z,288.00
2018-06-02T04:55:04.886Z,304.00
2018-06-02T04:56:04.883Z,300.00
2018-06-02T04:57:04.860Z,296.00
2018-06-02T04:58:04.840Z,312.00
2018-06-02T04:59:04.841Z,320.00
2018-06-02T05:00:04.822Z,320.00
2018-06-02T05:01:04.808Z,324.00
2018-06-02T05:02:04.802Z,320.00
2018-06-02T05:03:04.789Z,320.00
2018-06-02T05:04:04.783Z,324.00
2018-06-02T05:05:04.794Z,332.00
2018-06-02T05:06:04.753Z,344.00
2018-06-02T05:07:04.746Z,364.00
2018-06-02T05:08:04.726Z,368.00
2018-06-02T05:09:04.737Z,396.00
2018-06-02T05:10:04.700Z,416.00
2018-06-02T05:11:04.836Z,420.00
2018-06-02T05:12:04.676Z,412.00
2018-06-02T05:13:04.743Z,416.00
2018-06-02T05:14:04.654Z,412.00
2018-06-02T05:16:04.632Z,432.00
2018-06-02T05:17:04.722Z,416.00
2018-06-02T05:18:04.606Z,428.00
2018-06-02T05:19:04.743Z,440.00
2018-06-02T05:20:04.579Z,444.00
2018-06-02T05:21:04.717Z,440.00
2018-06-02T05:22:04.557Z,440.00
2018-06-02T05:23:04.586Z,456.00
2018-06-02T05:24:04.531Z,452.00
2018-06-02T05:25:04.522Z,432.00
2018-06-02T05:26:04.511Z,436.00
2018-06-02T05:27:04.512Z,452.00
2018-06-02T05:28:04.485Z,492.00
2018-06-02T05:29:04.544Z,488.00
2018-06-02T05:30:04.466Z,468.00
2018-06-02T05:31:04.499Z,444.00
2018-06-02T05:32:04.444Z,436.00
2018-06-02T05:33:04.422Z,428.00
2018-06-02T05:34:04.407Z,432.00
2018-06-02T05:35:04.400Z,428.00
2018-06-02T05:36:04.390Z,440.00
2018-06-02T05:37:04.384Z,464.00
2018-06-02T05:38:04.370Z,488.00
2018-06-02T05:39:04.364Z,504.00
2018-06-02T05:40:04.342Z,532.00
2018-06-02T05:41:04.329Z,540.00
2018-06-02T05:42:04.321Z,552.00
2018-06-02T05:43:04.305Z,544.00
2018-06-02T05:44:04.290Z,520.00
2018-06-02T05:45:04.277Z,536.00
2018-06-02T05:46:04.261Z,556.00
2018-06-02T05:47:04.253Z,540.00
2018-06-02T05:48:04.238Z,512.00
2018-06-02T05:49:04.229Z,500.00
2018-06-02T05:50:04.217Z,488.00
2018-06-02T05:51:04.206Z,480.00
2018-06-02T05:52:04.189Z,488.00
2018-06-02T05:53:04.175Z,512.00
2018-06-02T05:54:04.174Z,552.00
2018-06-02T05:55:04.162Z,620.00
2018-06-02T05:56:04.141Z,664.00
2018-06-02T05:57:04.127Z,728.00
2018-06-02T05:58:04.118Z,732.00
2018-06-02T05:59:04.113Z,748.00
2018-06-02T06:00:04.101Z,720.00
2018-06-02T06:01:04.082Z,700.00
2018-06-02T06:02:04.072Z,672.00
2018-06-02T06:03:04.061Z,712.00
2018-06-02T06:04:04.037Z,736.00
2018-06-02T06:05:04.036Z,784.00
2018-06-02T06:06:04.021Z,832.00
2018-06-02T06:07:04.011Z,892.00
2018-06-02T06:08:03.991Z,876.00
2018-06-02T06:09:03.985Z,876.00
2018-06-02T06:10:03.977Z,864.00
2018-06-02T06:11:03.966Z,816.00
2018-06-02T06:14:03.921Z,720.00
2018-06-02T06:15:03.912Z,660.00
2018-06-02T06:16:03.899Z,576.00
2018-06-02T06:17:03.889Z,548.00
2018-06-02T06:18:03.877Z,544.00
2018-06-02T06:19:03.861Z,572.00
2018-06-02T06:20:03.851Z,560.00
2018-06-02T06:21:03.842Z,552.00
2018-06-02T06:22:03.831Z,544.00
2018-06-02T06:23:03.822Z,572.00
2018-06-02T06:24:03.796Z,552.00
2018-06-02T06:25:03.787Z,568.00
2018-06-02T06:26:03.777Z,588.00
2018-06-02T06:27:03.765Z,580.00
2018-06-02T06:28:03.751Z,600.00
2018-06-02T06:29:03.747Z,596.00
2018-06-02T06:30:03.735Z,556.00
2018-06-02T06:31:03.724Z,528.00
2018-06-02T06:32:03.706Z,520.00
2018-06-02T06:36:03.660Z,644.00
2018-06-02T06:37:03.637Z,664.00
2018-06-02T06:38:03.625Z,760.00
2018-06-02T06:42:03.626Z,844.00
2018-06-02T06:43:03.568Z,892.00
2018-06-02T06:44:03.561Z,916.00
2018-06-02T06:45:03.545Z,936.00
2018-06-02T06:46:03.536Z,916.00
2018-06-02T06:47:03.523Z,844.00
2018-06-02T06:48:03.562Z,816.00
2018-06-02T06:49:03.497Z,912.00
2018-06-02T06:50:03.494Z,844.00
2018-06-02T06:51:03.479Z,908.00
2018-06-02T06:52:03.462Z,952.00
2018-06-02T06:53:03.455Z,952.00
2018-06-02T06:54:03.436Z,864.00
2018-06-02T06:55:03.427Z,820.00
2018-06-02T06:56:03.417Z,756.00
2018-06-02T06:57:03.394Z,740.00
2018-06-02T06:58:03.386Z,780.00
2018-06-02T06:59:03.381Z,748.00
2018-06-02T07:00:03.365Z,864.00
2018-06-02T07:01:03.359Z,760.00
2018-06-02T07:02:03.352Z,648.00
2018-06-02T07:03:03.331Z,624.00
2018-06-02T07:04:03.321Z,612.00
2018-06-02T07:05:03.305Z,584.00
2018-06-02T07:06:03.285Z,548.00
2018-06-02T07:07:03.282Z,548.00
2018-06-02T07:08:03.267Z,580.00
2018-06-02T07:10:03.241Z,572.00
2018-06-02T07:11:03.232Z,548.00
2018-06-02T07:12:03.234Z,568.00
2018-06-02T07:13:03.215Z,564.00
2018-06-02T07:14:03.197Z,568.00
2018-06-02T07:15:03.186Z,684.00
2018-06-02T07:16:03.171Z,736.00
2018-06-02T07:17:03.159Z,760.00
2018-06-02T07:18:03.152Z,804.00
2018-06-02T07:19:03.184Z,772.00
2018-06-02T07:20:03.117Z,748.00
2018-06-02T07:21:03.127Z,788.00
2018-06-02T07:22:03.108Z,792.00
2018-06-02T07:23:03.094Z,860.00
2018-06-02T07:25:03.066Z,860.00
2018-06-02T07:26:03.049Z,992.00
2018-06-02T07:27:03.062Z,956.00
2018-06-02T07:28:03.028Z,1052.00
2018-06-02T07:29:03.140Z,1044.00
2018-06-02T07:30:02.999Z,1200.00
2018-06-02T07:31:02.993Z,1220.00
2018-06-02T07:32:02.977Z,1368.00
2018-06-02T07:33:02.970Z,1412.00
2018-06-02T07:34:02.951Z,1384.00
2018-06-02T07:35:03.091Z,1328.00
2018-06-02T07:36:02.952Z,1228.00
2018-06-02T07:37:02.967Z,1356.00
2018-06-02T07:38:02.906Z,1308.00
2018-06-02T07:39:02.899Z,1496.00
2018-06-02T07:40:02.881Z,1668.00
2018-06-02T07:41:02.874Z,1616.00
2018-06-02T07:42:02.858Z,1640.00
2018-06-02T07:43:02.851Z,1708.00
2018-06-02T07:44:02.827Z,1684.00
2018-06-02T07:45:02.819Z,1756.00
2018-06-02T07:46:02.814Z,1660.00
2018-06-02T07:47:02.800Z,1564.00
2018-06-02T07:48:02.779Z,1648.00
2018-06-02T07:49:02.785Z,1516.00
2018-06-02T07:50:02.834Z,1472.00
2018-06-02T07:51:02.747Z,1556.00
2018-06-02T07:52:02.736Z,1520.00
2018-06-02T07:53:02.719Z,1460.00
2018-06-02T07:54:02.714Z,1516.00
2018-06-02T07:55:02.702Z,1512.00
2018-06-02T07:56:02.687Z,1688.00
2018-06-02T07:57:02.683Z,1724.00
2018-06-02T07:58:02.657Z,1712.00
2018-06-02T07:59:02.651Z,1756.00
2018-06-02T08:00:02.635Z,1596.00
2018-06-02T08:01:02.625Z,1588.00
2018-06-02T08:02:02.611Z,1640.00
2018-06-02T08:03:02.615Z,1800.00
2018-06-02T08:04:02.590Z,2016.00
2018-06-02T08:05:02.576Z,2120.00
2018-06-02T08:06:02.566Z,1896.00
2018-06-02T08:07:02.553Z,1860.00
2018-06-02T08:08:02.544Z,1824.00
2018-06-02T08:09:02.532Z,1616.00
2018-06-02T08:10:02.524Z,1604.00
2018-06-02T08:11:02.513Z,1500.00
2018-06-02T08:12:02.490Z,1412.00
2018-06-02T08:13:02.483Z,1444.00
2018-06-02T08:14:02.477Z,1684.00
2018-06-02T08:15:02.462Z,1904.00
2018-06-02T08:16:02.448Z,1796.00
2018-06-02T08:17:02.443Z,1784.00
2018-06-02T08:18:02.431Z,1844.00
2018-06-02T08:19:02.418Z,1992.00
2018-06-02T08:20:02.397Z,1952.00
2018-06-02T08:21:02.391Z,1904.00
2018-06-02T08:22:02.379Z,1956.00
2018-06-02T08:23:02.367Z,2004.00
2018-06-02T08:24:02.361Z,2068.00
2018-06-02T08:25:02.338Z,2204.00
2018-06-02T08:26:02.337Z,2168.00
2018-06-02T08:27:02.325Z,2316.00
2018-06-02T08:28:02.312Z,2252.00
2018-06-02T08:29:02.296Z,2092.00
2018-06-02T08:30:02.286Z,1880.00
2018-06-02T08:31:02.276Z,2004.00
2018-06-02T08:32:02.261Z,1980.00
2018-06-02T08:33:02.250Z,1912.00
2018-06-02T08:34:02.251Z,1864.00
2018-06-02T08:35:02.225Z,1884.00
2018-06-02T08:36:02.222Z,1844.00
2018-06-02T08:37:02.212Z,2096.00
2018-06-02T08:38:02.196Z,2064.00
2018-06-02T08:39:02.187Z,2136.00
2018-06-02T08:40:02.176Z,2180.00
2018-06-02T08:41:02.160Z,2168.00
2018-06-02T08:42:02.149Z,2192.00
2018-06-02T08:43:02.141Z,2224.00
2018-06-02T08:44:02.128Z,2328.00
2018-06-02T08:45:02.116Z,2380.00
2018-06-02T08:46:02.161Z,2468.00
2018-06-02T08:50:02.171Z,2612.00
2018-06-02T08:51:02.048Z,2560.00
2018-06-02T08:52:02.138Z,2704.00
2018-06-02T08:53:02.020Z,2892.00
2018-06-02T08:54:02.116Z,2800.00
2018-06-02T08:55:02.002Z,2792.00
2018-06-02T08:56:02.039Z,2824.00
2018-06-02T08:57:01.977Z,3196.00
2018-06-02T08:58:01.965Z,3440.00
2018-06-02T08:59:01.954Z,3508.00
2018-06-02T09:00:01.943Z,3672.00
2018-06-02T09:01:01.932Z,3244.00
2018-06-02T09:02:01.926Z,2660.00
2018-06-02T09:03:01.913Z,2400.00
2018-06-02T09:04:01.897Z,2636.00
2018-06-02T09:05:01.890Z,2864.00
2018-06-02T09:06:01.877Z,2768.00
2018-06-02T09:07:01.872Z,2908.00
2018-06-02T09:08:01.860Z,3448.00
2018-06-02T09:09:01.854Z,3984.00
2018-06-02T09:10:01.836Z,3788.00
2018-06-02T09:11:01.823Z,3292.00
2018-06-02T09:12:01.820Z,2700.00
2018-06-02T09:13:01.805Z,2372.00
2018-06-02T09:14:01.792Z,2320.00
2018-06-02T09:15:01.790Z,2388.00
2018-06-02T09:16:01.772Z,2520.00
2018-06-02T09:17:01.762Z,2652.00
2018-06-02T09:18:01.750Z,2736.00
2018-06-02T09:19:01.736Z,2508.00
2018-06-02T09:20:01.720Z,2396.00
2018-06-02T09:21:01.717Z,2688.00
2018-06-02T09:22:01.699Z,3468.00
2018-06-02T09:24:01.683Z,4796.00
2018-06-02T09:25:01.673Z,5232.00
2018-06-02T09:26:01.666Z,5120.00
2018-06-02T09:27:01.653Z,4844.00
2018-06-02T09:29:01.628Z,5504.00
2018-06-02T09:30:01.612Z,5412.00
2018-06-02T09:31:01.609Z,5876.00
2018-06-02T09:32:01.597Z,5656.00
2018-06-02T09:33:01.654Z,5388.00
2018-06-02T09:34:01.574Z,5748.00
2018-06-02T09:35:01.728Z,5092.00
2018-06-02T09:36:01.558Z,4736.00
2018-06-02T09:37:01.544Z,5044.00
2018-06-02T09:38:01.531Z,5420.00
2018-06-02T09:39:01.526Z,5716.00
2018-06-02T09:40:01.512Z,6144.00
2018-06-02T09:41:01.512Z,6392.00
2018-06-02T09:42:01.493Z,6084.00
2018-06-02T09:44:01.475Z,4784.00
2018-06-02T09:45:01.460Z,4288.00
2018-06-02T09:46:01.460Z,4124.00
2018-06-02T09:47:01.450Z,4436.00
2018-06-02T09:48:01.449Z,4656.00
2018-06-02T09:49:01.427Z,4580.00
2018-06-02T09:50:01.425Z,5196.00
2018-06-02T09:51:01.408Z,5816.00
2018-06-02T09:52:01.397Z,5964.00
2018-06-02T09:53:01.395Z,6200.00
2018-06-02T09:54:01.380Z,6064.00
2018-06-02T09:55:01.372Z,5912.00
2018-06-02T09:56:01.355Z,5780.00
2018-06-02T09:57:01.342Z,5696.00
2018-06-02T09:58:01.339Z,5516.00
2018-06-02T09:59:01.333Z,5552.00
2018-06-02T10:00:01.321Z,5784.00
2018-06-02T10:01:01.298Z,5756.00
2018-06-02T10:02:01.292Z,5592.00
2018-06-02T10:03:01.288Z,5376.00
2018-06-02T10:04:01.277Z,5348.00
2018-06-02T10:05:01.269Z,5328.00
2018-06-02T10:06:01.259Z,5576.00
2018-06-02T10:07:01.250Z,5884.00
2018-06-02T10:08:01.243Z,5904.00
2018-06-02T10:12:01.192Z,4912.00
2018-06-02T10:13:01.187Z,5256.00
2018-06-02T10:14:01.180Z,5744.00
2018-06-02T10:15:01.173Z,5976.00
2018-06-02T10:16:01.159Z,6052.00
2018-06-02T10:17:01.150Z,6028.00
2018-06-02T10:18:01.141Z,5916.00
2018-06-02T10:19:01.130Z,5840.00
2018-06-02T10:20:01.124Z,5544.00
2018-06-02T10:21:01.113Z,5140.00
2018-06-02T10:22:01.101Z,4700.00
2018-06-02T10:23:01.103Z,4436.00
2018-06-02T10:24:01.078Z,4100.00
2018-06-02T10:25:01.069Z,3716.00
2018-06-02T10:26:01.064Z,3372.00
2018-06-02T10:27:01.052Z,3188.00
2018-06-02T10:28:01.044Z,3300.00
2018-06-02T10:30:01.076Z,3980.00
2018-06-02T10:31:01.009Z,4236.00
2018-06-02T10:32:01.008Z,4448.00
2018-06-02T10:33:00.999Z,4448.00
2018-06-02T10:36:01.070Z,4872.00
2018-06-02T10:37:00.958Z,4920.00
2018-06-02T10:38:00.968Z,4948.00
2018-06-02T10:39:00.932Z,4752.00
2018-06-02T10:40:00.976Z,4360.00
2018-06-02T10:41:00.923Z,4180.00
2018-06-02T10:42:00.914Z,3856.00
2018-06-02T10:43:00.900Z,3584.00
2018-06-02T10:44:00.938Z,3272.00
2018-06-02T10:45:00.881Z,3124.00
2018-06-02T10:46:00.951Z,3288.00
2018-06-02T10:47:00.855Z,3524.00
2018-06-02T10:48:00.848Z,3616.00
2018-06-02T10:49:00.842Z,3588.00
2018-06-02T10:50:00.833Z,3648.00
2018-06-02T10:51:00.819Z,3884.00
2018-06-02T10:52:00.816Z,4260.00
2018-06-02T10:53:00.802Z,4744.00
2018-06-02T10:54:00.791Z,5180.00
2018-06-02T10:56:00.778Z,5660.00
2018-06-02T10:57:00.772Z,5640.00
2018-06-02T10:58:00.762Z,5520.00
2018-06-02T10:59:00.757Z,5356.00
2018-06-02T11:00:00.729Z,5144.00
2018-06-02T11:01:00.721Z,4928.00
2018-06-02T11:02:00.714Z,4776.00
2018-06-02T11:03:00.710Z,4648.00
2018-06-02T11:04:00.704Z,4404.00
2018-06-02T11:05:00.684Z,4372.00
2018-06-02T11:06:00.681Z,4584.00
2018-06-02T11:07:00.673Z,4840.00
2018-06-02T11:08:00.656Z,5092.00
2018-06-02T11:09:00.679Z,5408.00
2018-06-02T11:11:00.631Z,5996.00
2018-06-02T11:12:00.617Z,6208.00
2018-06-02T11:13:00.614Z,6276.00
2018-06-02T11:14:00.600Z,6156.00
2018-06-02T11:15:00.601Z,5696.00
2018-06-02T11:16:00.585Z,5192.00
2018-06-02T11:17:00.579Z,4476.00
2018-06-02T11:18:00.558Z,3828.00
2018-06-02T11:19:00.680Z,3140.00
2018-06-02T11:20:00.553Z,2676.00
2018-06-02T11:21:00.532Z,2440.00
2018-06-02T11:22:00.527Z,2488.00
2018-06-02T11:23:00.512Z,2748.00
2018-06-02T11:24:00.511Z,2940.00
2018-06-02T11:25:00.596Z,3064.00
2018-06-02T11:26:00.488Z,3184.00
2018-06-02T11:27:00.537Z,3284.00
2018-06-02T11:28:00.473Z,3332.00
2018-06-02T11:29:00.462Z,3300.00
2018-06-02T11:30:00.450Z,3196.00
2018-06-02T11:31:00.487Z,3104.00
2018-06-02T11:32:00.422Z,2936.00
2018-06-02T11:33:00.417Z,2752.00
2018-06-02T11:34:00.407Z,2632.00
2018-06-02T11:35:00.410Z,2564.00
2018-06-02T11:36:00.382Z,2560.00
2018-06-02T11:37:00.381Z,2584.00
2018-06-02T11:38:00.368Z,2500.00
2018-06-02T11:39:00.358Z,2320.00
2018-06-02T11:40:00.354Z,2240.00
2018-06-02T11:41:00.338Z,2168.00
2018-06-02T11:42:00.336Z,2100.00
2018-06-02T11:43:00.316Z,2084.00
2018-06-02T11:44:00.335Z,2084.00
2018-06-02T11:45:00.299Z,2044.00
2018-06-02T11:46:00.287Z,1960.00
2018-06-02T11:47:00.290Z,1812.00
2018-06-02T11:48:00.267Z,1736.00
2018-06-02T11:49:00.261Z,1740.00
2018-06-02T11:50:00.249Z,1856.00
2018-06-02T11:51:00.240Z,2052.00
2018-06-02T11:52:00.242Z,2304.00
2018-06-02T11:53:00.220Z,2620.00
2018-06-02T11:54:00.211Z,2988.00
2018-06-02T11:55:00.210Z,3436.00
2018-06-02T11:56:00.192Z,3992.00
2018-06-02T11:57:00.238Z,4656.00
2018-06-02T11:58:00.168Z,5384.00
2018-06-02T11:59:00.159Z,5920.00
2018-06-02T12:00:00.155Z,6580.00
2018-06-02T12:01:00.254Z,6524.00
2018-06-02T12:02:00.130Z,6476.00
2018-06-02T12:03:00.119Z,6548.00
2018-06-02T12:04:00.113Z,6424.00
2018-06-02T12:05:00.106Z,6028.00
2018-06-02T12:06:00.105Z,5340.00
2018-06-02T12:07:00.140Z,4092.00
2018-06-02T12:08:00.078Z,3116.00
2018-06-02T12:09:00.062Z,2520.00
2018-06-02T12:10:00.053Z,2236.00
2018-06-02T12:11:00.057Z,2160.00
2018-06-02T12:12:00.035Z,2244.00
2018-06-02T12:13:00.024Z,2360.00
2018-06-02T12:14:00.027Z,2508.00
2018-06-02T12:15:00.001Z,2676.00
2018-06-02T12:15:59.990Z,2888.00
2018-06-02T12:16:59.986Z,3076.00
2018-06-02T12:17:59.967Z,3224.00
2018-06-02T12:18:59.968Z,3408.00
2018-06-02T12:19:59.963Z,3532.00
2018-06-02T12:20:59.953Z,3628.00
2018-06-02T12:23:59.920Z,3720.00
2018-06-02T12:24:59.909Z,3824.00
2018-06-02T12:25:59.897Z,3972.00
2018-06-02T12:26:59.892Z,4128.00
2018-06-02T12:27:59.884Z,4200.00
2018-06-02T12:28:59.872Z,4192.00
2018-06-02T12:29:59.862Z,4020.00
2018-06-02T12:30:59.849Z,3664.00
2018-06-02T12:31:59.891Z,3244.00
2018-06-02T12:32:59.831Z,2900.00
2018-06-02T12:33:59.828Z,2548.00
2018-06-02T12:34:59.821Z,2272.00
2018-06-02T12:35:59.798Z,2076.00
2018-06-02T12:36:59.793Z,1960.00
2018-06-02T12:37:59.781Z,1976.00
2018-06-02T12:38:59.769Z,2064.00
2018-06-02T12:39:59.762Z,2256.00
2018-06-02T12:40:59.753Z,2524.00
2018-06-02T12:41:59.742Z,2832.00
2018-06-02T12:42:59.730Z,3108.00
2018-06-02T12:43:59.724Z,3376.00
2018-06-02T12:44:59.709Z,3572.00
2018-06-02T12:45:59.705Z,3740.00
2018-06-02T12:46:59.699Z,3864.00
2018-06-02T12:47:59.683Z,3936.00
2018-06-02T12:48:59.674Z,3988.00
2018-06-02T12:49:59.664Z,4020.00
2018-06-02T12:50:59.657Z,4020.00
2018-06-02T12:51:59.651Z,4068.00
2018-06-02T12:52:59.641Z,4180.00
2018-06-02T12:53:59.628Z,4312.00
2018-06-02T12:54:59.619Z,4240.00
2018-06-02T12:55:59.603Z,4080.00
2018-06-02T12:56:59.599Z,3956.00
2018-06-02T12:57:59.587Z,3848.00
2018-06-02T12:58:59.579Z,3776.00
2018-06-02T12:59:59.572Z,3736.00
2018-06-02T13:00:59.563Z,3568.00
2018-06-02T13:01:59.555Z,3036.00
2018-06-02T13:02:59.544Z,2424.00
2018-06-02T13:03:59.535Z,2064.00
2018-06-02T13:04:59.554Z,1896.00
2018-06-02T13:05:59.509Z,1876.00
2018-06-02T13:06:59.505Z,1844.00
2018-06-02T13:08:59.581Z,1876.00
2018-06-02T13:09:59.474Z,1884.00
2018-06-02T13:10:59.481Z,1880.00
2018-06-02T13:11:59.448Z,1912.00
2018-06-02T13:12:59.493Z,1972.00
2018-06-02T13:13:59.437Z,2068.00
2018-06-02T13:14:59.470Z,2204.00
2018-06-02T13:15:59.425Z,2352.00
2018-06-02T13:16:59.451Z,2540.00
2018-06-02T13:17:59.392Z,2732.00
2018-06-02T13:20:59.357Z,3064.00
2018-06-02T13:21:59.357Z,3180.00
2018-06-02T13:22:59.353Z,3304.00
2018-06-02T13:23:59.338Z,3444.00